Time;durP1;ratioP1;P1;durP2;ratioP2;P2;SDS_P1;SDS_P2;PMS_P1;PMS_P2;Temp;Humidity;BMP_temperature;BMP_pressure;BME280_temperature;BME280_humidity;BME280_pressure;Samples;Min_cycle;Max_cycle;Signal;HPM_P1;HPM_P2
2022/06/22 00:00:00;;;;;;;4.65;3.83;;;;;;;;;;4225035;28;20774;-76
2022/06/22 00:02:06;;;;;;;5.68;3.55;;;;;;;;;;4244255;22;20057;-71
2022/06/22 00:04:14;;;;;;;7.38;3.63;;;;;;;;;;4143695;28;20058;-71
2022/06/22 00:06:21;;;;;;;5.68;3.97;;;;;;;;;;4139975;28;20047;-71
2022/06/22 00:08:28;;;;;;;5.80;3.40;;;;;;;;;;4143799;28;20809;-71
2022/06/22 00:10:32;;;;;;;4.20;3.80;;;;;;;;;;4136981;28;20064;-71
2022/06/22 00:12:34;;;;;;;5.20;3.92;;;;;;;;;;4134882;28;20058;-71
2022/06/22 00:14:45;;;;;;;4.13;3.72;;;;;;;;;;4139607;28;20577;-70
2022/06/22 00:16:50;;;;;;;4.35;3.97;;;;;;;;;;4151909;28;20034;-71
2022/06/22 00:18:53;;;;;;;5.13;4.13;;;;;;;;;;4144636;28;20066;-71
2022/06/22 00:20:57;;;;;;;3.95;3.67;;;;;;;;;;4140198;28;20058;-72
2022/06/22 00:23:20;;;;;;;7.40;4.60;;;;;;;;;;4134632;28;20059;-71
2022/06/22 00:25:25;;;;;;;4.45;4.00;;;;;;;;;;4143361;28;20062;-71
2022/06/22 00:27:30;;;;;;;4.28;3.88;;;;;;;;;;4143194;28;20062;-72
2022/06/22 00:29:36;;;;;;;4.45;3.95;;;;;;;;;;4148165;28;20063;-73
2022/06/22 00:31:38;;;;;;;4.80;4.20;;;;;;;;;;4144378;28;20794;-73
2022/06/22 00:34:01;;;;;;;4.68;4.03;;;;;;;;;;4140064;28;20773;-73
2022/06/22 00:36:03;;;;;;;5.20;4.38;;;;;;;;;;4146179;28;20058;-72
2022/06/22 00:38:06;;;;;;;4.78;4.47;;;;;;;;;;4135064;28;20059;-73
2022/06/22 00:40:14;;;;;;;5.07;4.18;;;;;;;;;;4141872;28;20062;-71
2022/06/22 00:42:24;;;;;;;4.38;4.03;;;;;;;;;;4141916;28;20062;-72
2022/06/22 00:44:29;;;;;;;8.02;4.95;;;;;;;;;;4139293;28;20149;-72
2022/06/22 00:46:31;;;;;;;5.50;4.43;;;;;;;;;;4143666;28;20117;-72
2022/06/22 00:48:35;;;;;;;4.60;4.22;;;;;;;;;;4148330;28;20976;-73
2022/06/22 00:50:39;;;;;;;12.70;4.15;;;;;;;;;;4140605;28;20069;-73
2022/06/22 00:52:41;;;;;;;4.90;4.50;;;;;;;;;;4143778;28;20058;-73
2022/06/22 00:54:45;;;;;;;5.97;4.20;;;;;;;;;;4143041;28;20769;-73
2022/06/22 00:57:02;;;;;;;4.47;4.13;;;;;;;;;;4144202;28;20853;-73
2022/06/22 00:59:16;;;;;;;5.03;4.55;;;;;;;;;;4139882;28;20708;-73
2022/06/22 01:01:25;;;;;;;4.63;4.30;;;;;;;;;;4143349;28;20872;-73
2022/06/22 01:03:33;;;;;;;6.95;4.65;;;;;;;;;;4140113;28;20069;-73
2022/06/22 01:05:42;;;;;;;5.38;4.97;;;;;;;;;;4144281;28;20144;-73
2022/06/22 01:07:53;;;;;;;5.32;4.38;;;;;;;;;;4144072;28;20786;-73
2022/06/22 01:10:04;;;;;;;7.53;4.35;;;;;;;;;;4138910;28;20066;-73
2022/06/22 01:12:25;;;;;;;6.38;4.78;;;;;;;;;;4144229;28;20158;-73
2022/06/22 01:14:32;;;;;;;5.13;4.65;;;;;;;;;;4145216;28;20925;-73
2022/06/22 01:16:36;;;;;;;6.95;4.20;;;;;;;;;;4139050;28;20093;-73
2022/06/22 01:18:41;;;;;;;5.05;4.65;;;;;;;;;;4144422;28;20078;-73
2022/06/22 01:20:52;;;;;;;5.43;4.35;;;;;;;;;;4148082;28;20062;-73
2022/06/22 01:23:14;;;;;;;4.15;3.95;;;;;;;;;;4135603;28;20059;-73
2022/06/22 01:25:29;;;;;;;5.20;4.20;;;;;;;;;;4137867;28;20165;-73
2022/06/22 01:27:35;;;;;;;4.55;4.13;;;;;;;;;;4139930;28;20964;-73
2022/06/22 01:29:46;;;;;;;4.85;4.45;;;;;;;;;;4136979;28;20878;-72
2022/06/22 01:32:00;;;;;;;4.65;4.25;;;;;;;;;;4138993;28;20042;-74
2022/06/22 01:34:02;;;;;;;6.20;4.75;;;;;;;;;;4135110;28;20909;-73
2022/06/22 01:36:14;;;;;;;4.55;4.22;;;;;;;;;;4140312;28;20055;-73
2022/06/22 01:38:22;;;;;;;4.75;4.35;;;;;;;;;;4153299;28;20157;-74
2022/06/22 01:40:26;;;;;;;4.43;4.07;;;;;;;;;;4139568;28;20089;-73
2022/06/22 01:42:32;;;;;;;4.55;4.18;;;;;;;;;;4138800;28;20066;-73
2022/06/22 01:44:40;;;;;;;5.15;4.72;;;;;;;;;;4140595;28;21261;-73
2022/06/22 01:47:01;;;;;;;5.20;4.75;;;;;;;;;;4146215;28;20681;-73
2022/06/22 01:49:11;;;;;;;5.93;4.88;;;;;;;;;;4141421;28;20066;-73
2022/06/22 01:51:24;;;;;;;4.97;4.53;;;;;;;;;;4137394;28;20101;-73
2022/06/22 01:53:32;;;;;;;5.93;5.30;;;;;;;;;;4144867;28;20066;-73
2022/06/22 01:55:34;;;;;;;7.05;4.43;;;;;;;;;;4139863;28;20154;-73
2022/06/22 01:57:40;;;;;;;5.75;4.90;;;;;;;;;;4144703;28;20057;-73
2022/06/22 01:59:46;;;;;;;5.15;4.25;;;;;;;;;;4138258;28;20062;-73
2022/06/22 02:02:26;;;;;;;5.20;4.90;;;;;;;;;;4142569;28;20058;-73
2022/06/22 02:04:39;;;;;;;4.72;4.32;;;;;;;;;;4097295;28;20919;-73
2022/06/22 02:09:11;;;;;;;9.55;5.57;;;;;;;;;;4107493;28;20058;-73
2022/06/22 02:11:16;;;;;;;8.90;5.43;;;;;;;;;;4141634;28;20062;-74
2022/06/22 02:13:24;;;;;;;8.75;5.38;;;;;;;;;;4143648;28;20068;-73
2022/06/22 02:15:41;;;;;;;5.18;4.88;;;;;;;;;;4141193;28;20084;-73
2022/06/22 02:17:44;;;;;;;7.60;4.88;;;;;;;;;;4138658;28;20125;-73
2022/06/22 02:20:06;;;;;;;6.18;5.53;;;;;;;;;;4140438;28;20054;-73
2022/06/22 02:22:12;;;;;;;5.75;5.20;;;;;;;;;;4139876;28;21017;-73
2022/06/22 02:24:18;;;;;;;10.25;5.05;;;;;;;;;;4143932;28;20062;-73
2022/06/22 02:26:26;;;;;;;5.63;5.07;;;;;;;;;;4140196;28;20065;-73
2022/06/22 02:28:29;;;;;;;5.05;4.65;;;;;;;;;;4142074;28;20106;-73
2022/06/22 02:30:32;;;;;;;5.78;4.15;;;;;;;;;;4137472;28;20081;-73
2022/06/22 02:32:36;;;;;;;6.13;5.03;;;;;;;;;;4141739;28;20793;-73
2022/06/22 02:34:41;;;;;;;6.07;4.97;;;;;;;;;;4138990;28;20153;-73
2022/06/22 02:36:47;;;;;;;5.60;4.75;;;;;;;;;;4137917;28;20105;-73
2022/06/22 02:38:50;;;;;;;5.28;4.80;;;;;;;;;;4141259;28;20180;-72
2022/06/22 02:45:36;;;;;;;9.68;5.55;;;;;;;;;;4137327;28;20094;-73
2022/06/22 02:47:43;;;;;;;5.25;4.85;;;;;;;;;;4140838;28;20065;-73
2022/06/22 02:49:49;;;;;;;8.05;5.90;;;;;;;;;;4133700;28;20687;-73
2022/06/22 02:51:52;;;;;;;5.38;4.88;;;;;;;;;;4136220;28;20058;-73
2022/06/22 02:53:57;;;;;;;5.07;4.60;;;;;;;;;;4141703;28;20687;-73
2022/06/22 02:55:59;;;;;;;5.30;4.80;;;;;;;;;;4134215;28;20073;-72
2022/06/22 02:58:02;;;;;;;12.25;5.50;;;;;;;;;;4136125;28;20172;-73
2022/06/22 03:00:05;;;;;;;7.07;6.32;;;;;;;;;;4137344;28;20224;-73
2022/06/22 03:02:07;;;;;;;9.05;6.28;;;;;;;;;;4148236;28;20051;-73
2022/06/22 03:04:14;;;;;;;6.70;6.00;;;;;;;;;;4153230;28;20183;-73
2022/06/22 03:06:16;;;;;;;6.80;5.63;;;;;;;;;;4138377;28;20059;-73
2022/06/22 03:08:19;;;;;;;5.53;5.00;;;;;;;;;;4142253;28;20062;-73
2022/06/22 03:10:32;;;;;;;5.32;4.82;;;;;;;;;;4136035;28;20069;-73
2022/06/22 03:12:34;;;;;;;6.80;6.00;;;;;;;;;;4139796;28;20061;-73
2022/06/22 03:14:38;;;;;;;6.00;5.55;;;;;;;;;;4140683;28;20055;-73
2022/06/22 03:16:42;;;;;;;7.57;5.75;;;;;;;;;;4143813;28;20069;-73
2022/06/22 03:18:44;;;;;;;7.47;5.47;;;;;;;;;;4139353;28;20093;-73
2022/06/22 03:20:51;;;;;;;6.88;5.78;;;;;;;;;;4142045;28;20055;-72
2022/06/22 03:22:54;;;;;;;5.93;5.40;;;;;;;;;;4141294;28;20105;-73
2022/06/22 03:24:59;;;;;;;8.32;5.13;;;;;;;;;;4142048;28;20065;-73
2022/06/22 03:27:07;;;;;;;6.13;5.38;;;;;;;;;;4145317;28;20054;-73
2022/06/22 03:29:14;;;;;;;9.02;6.15;;;;;;;;;;4143078;28;21018;-73
2022/06/22 03:31:22;;;;;;;5.55;5.07;;;;;;;;;;4142824;28;20153;-73
2022/06/22 03:33:30;;;;;;;6.53;5.93;;;;;;;;;;4145597;28;20763;-73
2022/06/22 03:35:42;;;;;;;8.15;5.18;;;;;;;;;;4143821;28;20065;-73
2022/06/22 03:37:48;;;;;;;7.43;5.90;;;;;;;;;;4145326;28;20850;-73
2022/06/22 03:39:52;;;;;;;7.82;5.57;;;;;;;;;;4143774;28;20899;-73
2022/06/22 03:41:57;;;;;;;7.70;6.03;;;;;;;;;;4142996;28;20058;-73
2022/06/22 03:44:06;;;;;;;6.10;5.50;;;;;;;;;;4142271;28;20093;-73
2022/06/22 03:46:17;;;;;;;6.97;6.28;;;;;;;;;;4145097;28;20162;-73
2022/06/22 03:48:27;;;;;;;5.97;5.47;;;;;;;;;;4146945;28;20114;-73
2022/06/22 03:50:35;;;;;;;6.55;5.70;;;;;;;;;;4139232;28;20069;-73
2022/06/22 03:52:46;;;;;;;6.25;5.70;;;;;;;;;;4139620;28;20169;-73
2022/06/22 03:54:56;;;;;;;5.78;5.28;;;;;;;;;;4144577;28;20703;-73
2022/06/22 03:56:59;;;;;;;7.00;5.32;;;;;;;;;;4138643;28;20070;-73
2022/06/22 03:59:02;;;;;;;6.15;5.55;;;;;;;;;;4139439;28;20061;-73
2022/06/22 04:01:05;;;;;;;6.50;5.88;;;;;;;;;;4140282;28;20069;-73
2022/06/22 04:03:08;;;;;;;6.45;5.85;;;;;;;;;;4137977;28;20062;-73
2022/06/22 04:05:14;;;;;;;5.82;5.32;;;;;;;;;;4137894;28;20043;-73
2022/06/22 04:07:17;;;;;;;6.63;5.35;;;;;;;;;;4138174;28;20070;-73
2022/06/22 04:09:21;;;;;;;5.55;5.10;;;;;;;;;;4139663;28;20169;-73
2022/06/22 04:11:43;;;;;;;6.30;5.65;;;;;;;;;;4135719;28;20062;-73
2022/06/22 04:13:47;;;;;;;5.68;5.03;;;;;;;;;;4146037;28;20086;-73
2022/06/22 04:15:53;;;;;;;6.15;5.43;;;;;;;;;;4141736;28;20154;-73
2022/06/22 04:17:57;;;;;;;5.88;5.43;;;;;;;;;;4139629;28;20189;-73
2022/06/22 04:20:21;;;;;;;8.25;5.55;;;;;;;;;;4137747;28;20054;-73
2022/06/22 04:22:27;;;;;;;6.07;5.60;;;;;;;;;;4136090;28;20909;-73
2022/06/22 04:24:32;;;;;;;5.95;5.25;;;;;;;;;;4138028;28;20065;-73
2022/06/22 04:26:37;;;;;;;7.53;5.82;;;;;;;;;;4142774;28;20053;-73
2022/06/22 04:28:41;;;;;;;5.18;4.75;;;;;;;;;;4154804;28;20046;-72
2022/06/22 04:30:51;;;;;;;7.63;6.00;;;;;;;;;;4146377;28;20857;-72
2022/06/22 04:33:06;;;;;;;5.77;5.17;;;;;;;;;;4141181;28;20059;-73
2022/06/22 04:35:23;;;;;;;6.13;5.63;;;;;;;;;;4140281;28;21134;-73
2022/06/22 04:37:29;;;;;;;6.57;5.97;;;;;;;;;;4142307;28;20205;-73
2022/06/22 04:39:34;;;;;;;6.53;5.13;;;;;;;;;;4142496;28;20877;-72
2022/06/22 04:41:37;;;;;;;5.60;5.13;;;;;;;;;;4143769;28;20073;-72
2022/06/22 04:43:39;;;;;;;7.95;5.78;;;;;;;;;;4144539;28;20059;-72
2022/06/22 04:45:43;;;;;;;7.10;5.75;;;;;;;;;;4141283;28;20054;-72
2022/06/22 04:47:45;;;;;;;10.93;5.93;;;;;;;;;;4142255;28;20633;-71
2022/06/22 04:49:55;;;;;;;7.88;5.85;;;;;;;;;;4142460;28;20062;-72
2022/06/22 04:52:08;;;;;;;6.22;5.72;;;;;;;;;;4143786;28;20050;-72
2022/06/22 04:54:19;;;;;;;6.72;6.13;;;;;;;;;;4144699;28;20065;-72
2022/06/22 04:56:26;;;;;;;5.35;4.80;;;;;;;;;;4144635;28;20810;-73
2022/06/22 04:58:34;;;;;;;6.85;5.82;;;;;;;;;;4149322;28;20065;-73
2022/06/22 05:00:36;;;;;;;6.07;5.40;;;;;;;;;;4149038;28;20059;-72
2022/06/22 05:02:40;;;;;;;7.50;5.07;;;;;;;;;;4144171;28;20864;-73
2022/06/22 05:04:44;;;;;;;6.75;5.88;;;;;;;;;;4146530;28;20682;-72
2022/06/22 05:06:51;;;;;;;7.05;5.72;;;;;;;;;;4146523;28;20682;-74
2022/06/22 05:08:58;;;;;;;7.25;5.72;;;;;;;;;;4146643;28;20066;-73
2022/06/22 05:11:10;;;;;;;7.82;5.40;;;;;;;;;;4142425;28;20093;-74
2022/06/22 05:13:14;;;;;;;5.80;5.25;;;;;;;;;;4144509;28;20062;-74
2022/06/22 05:15:25;;;;;;;10.35;5.68;;;;;;;;;;4147806;28;20077;-74
2022/06/22 05:17:36;;;;;;;6.75;5.50;;;;;;;;;;4144292;28;20066;-75
2022/06/22 05:19:50;;;;;;;6.10;5.30;;;;;;;;;;4137855;28;20113;-74
2022/06/22 05:21:52;;;;;;;6.00;5.45;;;;;;;;;;4143755;28;20055;-75
2022/06/22 05:23:55;;;;;;;5.65;5.25;;;;;;;;;;4146346;28;20166;-74
2022/06/22 05:26:00;;;;;;;7.43;5.10;;;;;;;;;;4141014;28;20062;-74
2022/06/22 05:28:05;;;;;;;5.95;5.40;;;;;;;;;;4145998;28;20058;-74
2022/06/22 05:30:08;;;;;;;5.85;5.13;;;;;;;;;;4143850;28;20068;-74
2022/06/22 05:32:12;;;;;;;5.88;5.13;;;;;;;;;;4143399;28;20059;-74
2022/06/22 05:34:19;;;;;;;7.18;5.22;;;;;;;;;;4140427;28;20058;-74
2022/06/22 05:36:23;;;;;;;6.13;5.30;;;;;;;;;;4145666;28;20057;-73
2022/06/22 05:38:26;;;;;;;5.82;5.32;;;;;;;;;;4144697;28;20070;-73
2022/06/22 05:40:30;;;;;;;13.57;5.15;;;;;;;;;;4145176;28;20154;-74
2022/06/22 05:42:34;;;;;;;7.32;4.75;;;;;;;;;;4146979;28;20230;-74
2022/06/22 05:44:37;;;;;;;4.80;3.63;;;;;;;;;;4145135;28;20058;-74
2022/06/22 05:46:40;;;;;;;4.20;3.88;;;;;;;;;;4148566;28;20081;-74
2022/06/22 05:48:44;;;;;;;4.57;3.65;;;;;;;;;;4147040;28;20058;-74
2022/06/22 05:50:53;;;;;;;5.78;4.38;;;;;;;;;;4150885;28;20046;-74
2022/06/22 05:53:14;;;;;;;4.75;4.35;;;;;;;;;;4157981;28;20046;-74
2022/06/22 05:55:29;;;;;;;4.80;4.25;;;;;;;;;;4151764;28;20058;-74
2022/06/22 05:57:31;;;;;;;5.18;4.65;;;;;;;;;;4148189;28;20080;-74
2022/06/22 05:59:52;;;;;;;4.78;4.38;;;;;;;;;;4147748;28;20094;-74
2022/06/22 06:01:55;;;;;;;;;;;;;;;;;;4144637;28;20058;-74
2022/06/22 06:04:09;;;;;;;5.03;4.53;;;;;;;;;;4142170;28;43461;-73
2022/06/22 06:06:17;;;;;;;5.03;4.53;;;;;;;;;;4143791;28;20058;-73
2022/06/22 06:08:38;;;;;;;6.95;5.05;;;;;;;;;;4141816;28;20063;-73
2022/06/22 06:10:40;;;;;;;;;;;;;;;;;;4146463;28;20895;-75
2022/06/22 06:12:45;;;;;;;9.77;4.78;;;;;;;;;;4160423;22;44378;-79
2022/06/22 06:14:51;;;;;;;7.80;5.03;;;;;;;;;;4177439;28;20080;-77
2022/06/22 06:16:55;;;;;;;6.18;5.38;;;;;;;;;;4172834;28;20069;-77
2022/06/22 06:18:59;;;;;;;8.63;5.13;;;;;;;;;;4177767;28;20062;-78
2022/06/22 06:21:04;;;;;;;5.30;4.80;;;;;;;;;;4170993;28;20865;-77
2022/06/22 06:23:11;;;;;;;5.65;5.15;;;;;;;;;;4176708;28;20075;-79
2022/06/22 06:27:41;;;;;;;6.38;4.95;;;;;;;;;;4185712;28;20053;-80
2022/06/22 06:32:31;;;;;;;9.85;8.73;;;;;;;;;;4172477;28;20169;-76
2022/06/22 06:34:45;;;;;;;9.32;6.10;;;;;;;;;;4175678;28;20742;-74
2022/06/22 06:36:53;;;;;;;7.03;5.38;;;;;;;;;;4180767;28;20144;-76
2022/06/22 06:39:09;;;;;;;8.30;5.13;;;;;;;;;;4172737;28;20061;-77
2022/06/22 06:41:18;;;;;;;5.13;4.63;;;;;;;;;;4172927;28;20066;-76
2022/06/22 06:43:30;;;;;;;5.32;4.82;;;;;;;;;;4172407;28;20068;-77
2022/06/22 06:45:33;;;;;;;5.63;4.90;;;;;;;;;;4175925;28;20096;-76
2022/06/22 06:47:36;;;;;;;5.60;5.20;;;;;;;;;;4170337;28;20753;-75
2022/06/22 06:49:42;;;;;;;5.53;5.03;;;;;;;;;;4178740;28;20143;-76
2022/06/22 06:51:49;;;;;;;5.93;5.13;;;;;;;;;;4168173;28;20058;-76
2022/06/22 06:53:59;;;;;;;5.22;4.55;;;;;;;;;;4176019;28;20116;-76
2022/06/22 06:56:10;;;;;;;7.85;5.68;;;;;;;;;;4178664;28;20136;-75
2022/06/22 06:58:12;;;;;;;;;;;;;;;;;;4174435;28;20061;-76
2022/06/22 07:00:14;;;;;;;5.60;5.20;;;;;;;;;;4171484;28;44532;-76
2022/06/22 07:02:34;;;;;;;6.68;5.25;;;;;;;;;;4186738;28;20876;-76
2022/06/22 07:04:36;;;;;;;7.18;6.47;;;;;;;;;;4180446;28;20812;-77
2022/06/22 07:06:39;;;;;;;7.57;6.70;;;;;;;;;;4183093;28;20072;-78
2022/06/22 07:08:49;;;;;;;8.52;6.35;;;;;;;;;;4176266;28;20061;-77
2022/06/22 07:10:53;;;;;;;6.85;6.28;;;;;;;;;;4173994;28;20065;-78
2022/06/22 07:12:58;;;;;;;9.55;7.20;;;;;;;;;;4171305;28;20062;-77
2022/06/22 07:15:02;;;;;;;8.07;7.43;;;;;;;;;;4172809;28;20788;-76
2022/06/22 07:17:09;;;;;;;9.27;8.38;;;;;;;;;;4174940;28;20139;-77
2022/06/22 07:19:29;;;;;;;10.07;8.32;;;;;;;;;;4180947;28;20103;-77
2022/06/22 07:21:32;;;;;;;9.33;8.43;;;;;;;;;;4175266;28;20600;-76
2022/06/22 07:23:41;;;;;;;10.45;8.95;;;;;;;;;;4175816;28;20067;-77
2022/06/22 07:25:45;;;;;;;13.75;8.90;;;;;;;;;;4173818;28;20645;-77
2022/06/22 07:27:52;;;;;;;10.05;9.20;;;;;;;;;;4177548;28;20054;-77
2022/06/22 07:29:55;;;;;;;12.95;8.85;;;;;;;;;;4173240;28;20092;-76
2022/06/22 07:32:06;;;;;;;8.20;7.43;;;;;;;;;;4173717;28;20156;-77
2022/06/22 07:34:19;;;;;;;9.18;8.48;;;;;;;;;;4172596;28;20072;-77
2022/06/22 07:36:23;;;;;;;11.15;9.93;;;;;;;;;;4171475;28;20065;-76
2022/06/22 07:38:46;;;;;;;10.73;9.63;;;;;;;;;;4175151;28;20959;-77
2022/06/22 07:43:09;;;;;;;;;;;;;;;;;;4175523;28;20062;-78
2022/06/22 07:45:16;;;;;;;8.93;8.02;;;;;;;;;;4170822;28;43131;-77
2022/06/22 07:47:26;;;;;;;8.32;7.63;;;;;;;;;;4179586;28;20053;-78
2022/06/22 07:49:28;;;;;;;;;;;;;;;;;;4176810;28;20054;-78
2022/06/22 07:51:32;;;;;;;11.38;7.60;;;;;;;;;;4179988;28;42686;-77
2022/06/22 07:53:44;;;;;;;10.38;8.70;;;;;;;;;;4169361;28;20076;-77
2022/06/22 07:55:53;;;;;;;8.52;7.68;;;;;;;;;;4169042;28;20058;-77
2022/06/22 07:57:55;;;;;;;8.35;7.53;;;;;;;;;;4172282;28;20592;-77
2022/06/22 08:00:00;;;;;;;8.15;7.35;;;;;;;;;;4176851;28;20061;-77
2022/06/22 08:02:04;;;;;;;8.05;7.03;;;;;;;;;;4183850;28;20057;-78
2022/06/22 08:04:10;;;;;;;9.85;7.88;;;;;;;;;;4192974;28;20061;-80
2022/06/22 08:06:20;;;;;;;11.60;9.48;;;;;;;;;;4176343;28;20205;-79
2022/06/22 08:08:28;;;;;;;10.70;7.53;;;;;;;;;;4170577;28;20057;-78
2022/06/22 08:10:42;;;;;;;9.50;8.05;;;;;;;;;;4174152;28;20186;-78
2022/06/22 08:12:52;;;;;;;8.45;7.32;;;;;;;;;;4173715;28;20821;-78
2022/06/22 08:14:54;;;;;;;11.10;7.22;;;;;;;;;;4173353;28;20084;-78
2022/06/22 08:16:57;;;;;;;8.38;7.22;;;;;;;;;;4178557;28;20061;-78
2022/06/22 08:19:00;;;;;;;8.98;8.05;;;;;;;;;;4169069;28;20057;-77
2022/06/22 08:21:02;;;;;;;8.73;7.45;;;;;;;;;;4185871;28;20779;-78
2022/06/22 08:23:05;;;;;;;7.85;7.25;;;;;;;;;;4175767;28;20061;-78
2022/06/22 08:25:28;;;;;;;9.43;7.55;;;;;;;;;;4188457;28;20061;-78
2022/06/22 08:27:30;;;;;;;8.50;7.80;;;;;;;;;;4175809;28;20149;-77
2022/06/22 08:29:34;;;;;;;8.55;7.55;;;;;;;;;;4175460;28;20160;-77
2022/06/22 08:31:49;;;;;;;8.18;7.40;;;;;;;;;;4176669;28;20784;-77
2022/06/22 08:34:15;;;;;;;7.78;7.03;;;;;;;;;;4174542;28;20061;-78
2022/06/22 08:36:37;;;;;;;6.80;6.28;;;;;;;;;;4173378;28;20057;-78
2022/06/22 08:38:51;;;;;;;11.18;6.72;;;;;;;;;;4175421;28;20065;-77
2022/06/22 08:41:12;;;;;;;8.75;6.72;;;;;;;;;;4177538;28;20081;-78
2022/06/22 08:43:26;;;;;;;8.57;7.32;;;;;;;;;;4173096;28;20058;-78
2022/06/22 08:45:47;;;;;;;8.15;6.88;;;;;;;;;;4176068;28;20682;-78
2022/06/22 08:47:50;;;;;;;9.32;6.93;;;;;;;;;;4177222;28;20059;-78
2022/06/22 08:50:09;;;;;;;8.55;6.45;;;;;;;;;;4173915;28;20076;-78
2022/06/22 08:52:30;;;;;;;6.50;5.88;;;;;;;;;;4173422;28;20077;-77
2022/06/22 08:55:03;;;;;;;7.45;6.85;;;;;;;;;;4170300;28;20054;-77
2022/06/22 08:57:11;;;;;;;10.20;6.70;;;;;;;;;;4179144;28;20046;-78
2022/06/22 08:59:28;;;;;;;8.25;7.50;;;;;;;;;;4178350;28;20049;-77
2022/06/22 09:01:40;;;;;;;7.93;7.22;;;;;;;;;;4166471;28;20066;-79
2022/06/22 09:04:01;;;;;;;8.90;6.60;;;;;;;;;;4172820;28;20053;-78
2022/06/22 09:06:22;;;;;;;9.93;7.63;;;;;;;;;;4193105;28;20161;-78
2022/06/22 09:08:33;;;;;;;7.65;6.78;;;;;;;;;;4174769;28;20087;-78
2022/06/22 09:10:44;;;;;;;9.07;8.35;;;;;;;;;;4172758;28;20057;-78
2022/06/22 09:13:05;;;;;;;8.40;7.60;;;;;;;;;;4169955;28;20223;-77
2022/06/22 09:15:16;;;;;;;8.90;7.40;;;;;;;;;;4173740;28;20066;-77
2022/06/22 09:17:25;;;;;;;7.97;7.32;;;;;;;;;;4175070;28;20065;-78
2022/06/22 09:19:33;;;;;;;7.55;6.65;;;;;;;;;;4171440;28;20068;-77
2022/06/22 09:21:39;;;;;;;8.77;7.78;;;;;;;;;;4178435;28;20069;-77
2022/06/22 09:23:59;;;;;;;7.60;6.97;;;;;;;;;;4179546;28;20837;-77
2022/06/22 09:26:01;;;;;;;;;;;;;;;;;;4173331;28;21146;-77
2022/06/22 09:28:12;;;;;;;8.48;7.57;;;;;;;;;;4175030;28;43328;-77
2022/06/22 09:30:29;;;;;;;10.25;7.57;;;;;;;;;;4177924;28;20061;-78
2022/06/22 09:32:51;;;;;;;9.52;6.55;;;;;;;;;;4177607;28;20128;-76
2022/06/22 09:35:12;;;;;;;9.00;6.45;;;;;;;;;;4180951;28;20053;-77
2022/06/22 09:37:34;;;;;;;7.32;6.70;;;;;;;;;;4179790;28;20057;-77
2022/06/22 09:40:06;;;;;;;10.60;7.63;;;;;;;;;;4177971;28;20057;-75
2022/06/22 09:42:08;;;;;;;8.75;6.88;;;;;;;;;;4174067;28;20068;-77
2022/06/22 09:44:22;;;;;;;7.57;6.68;;;;;;;;;;4178975;28;20163;-76
2022/06/22 09:46:36;;;;;;;8.02;6.97;;;;;;;;;;4178691;28;20143;-75
2022/06/22 09:48:38;;;;;;;9.15;6.50;;;;;;;;;;4176131;28;20105;-75
2022/06/22 09:50:48;;;;;;;10.68;7.50;;;;;;;;;;4171918;28;20562;-75
2022/06/22 09:53:09;;;;;;;7.30;6.53;;;;;;;;;;4173323;28;20086;-75
2022/06/22 09:58:04;;;;;;;6.75;6.05;;;;;;;;;;4172498;28;20054;-75
2022/06/22 10:00:11;;;;;;;6.55;6.05;;;;;;;;;;4174544;28;20057;-74
2022/06/22 10:02:13;;;;;;;6.82;6.00;;;;;;;;;;4172849;28;20064;-75
2022/06/22 10:04:34;;;;;;;7.40;6.05;;;;;;;;;;4177772;28;20058;-74
2022/06/22 10:06:36;;;;;;;;;;;;;;;;;;4173190;28;20041;-73
2022/06/22 10:08:44;;;;;;;6.85;6.22;;;;;;;;;;4186937;28;44371;-73
2022/06/22 10:11:05;;;;;;;5.97;5.47;;;;;;;;;;4179842;28;20063;-74
2022/06/22 10:13:07;;;;;;;;;;;;;;;;;;4178389;28;20093;-74
2022/06/22 10:15:28;;;;;;;9.00;6.00;;;;;;;;;;4172602;28;43156;-74
2022/06/22 10:17:48;;;;;;;7.63;6.75;;;;;;;;;;4171252;28;20856;-74
2022/06/22 10:20:19;;;;;;;10.48;7.40;;;;;;;;;;4172509;28;20054;-74
2022/06/22 10:22:39;;;;;;;11.82;7.78;;;;;;;;;;4177177;28;20201;-75
2022/06/22 10:24:56;;;;;;;9.20;7.60;;;;;;;;;;4175052;28;20068;-77
2022/06/22 10:27:24;;;;;;;8.45;7.68;;;;;;;;;;4175167;28;20872;-79
2022/06/22 10:29:26;;;;;;;10.98;7.50;;;;;;;;;;4175415;28;20100;-77
2022/06/22 10:31:28;;;;;;;7.22;6.53;;;;;;;;;;4171709;28;20100;-77
2022/06/22 10:33:46;;;;;;;7.68;6.13;;;;;;;;;;4171233;28;20081;-77
2022/06/22 10:36:05;;;;;;;5.85;5.22;;;;;;;;;;4165678;28;20057;-77
2022/06/22 10:38:26;;;;;;;6.45;5.75;;;;;;;;;;4176574;28;20061;-79
2022/06/22 10:45:41;;;;;;;6.50;5.90;;;;;;;;;;4176516;28;20061;-76
2022/06/22 10:48:07;;;;;;;6.43;5.68;;;;;;;;;;4178498;28;20093;-76
2022/06/22 10:50:09;;;;;;;6.68;6.10;;;;;;;;;;4178823;28;20785;-76
2022/06/22 10:52:50;;;;;;;6.78;6.13;;;;;;;;;;4175580;28;20131;-77
2022/06/22 10:54:53;;;;;;;;;;;;;;;;;;4181321;28;20057;-78
2022/06/22 10:57:06;;;;;;;7.50;6.85;;;;;;;;;;4175113;28;43061;-78
2022/06/22 10:59:19;;;;;;;11.45;8.40;;;;;;;;;;4171579;28;20057;-78
2022/06/22 11:02:00;;;;;;;12.57;8.65;;;;;;;;;;4177951;28;20864;-78
2022/06/22 11:04:21;;;;;;;10.75;8.45;;;;;;;;;;4179926;28;20155;-79
2022/06/22 11:06:28;;;;;;;8.57;7.63;;;;;;;;;;4177528;28;20053;-77
2022/06/22 11:08:51;;;;;;;10.82;8.10;;;;;;;;;;4176090;28;20060;-78
2022/06/22 11:10:54;;;;;;;10.90;7.72;;;;;;;;;;4177546;28;20061;-80
2022/06/22 11:13:15;;;;;;;9.98;7.70;;;;;;;;;;4178236;28;20062;-77
2022/06/22 11:15:17;;;;;;;;;;;;;;;;;;4180181;28;20057;-78
2022/06/22 11:17:34;;;;;;;10.88;8.23;;;;;;;;;;4177419;28;42402;-78
2022/06/22 11:19:39;;;;;;;10.88;8.95;;;;;;;;;;4177011;28;20761;-78
2022/06/22 11:22:07;;;;;;;12.55;8.90;;;;;;;;;;4179203;28;20181;-78
2022/06/22 11:24:19;;;;;;;9.65;8.07;;;;;;;;;;4174306;28;20803;-78
2022/06/22 11:31:20;;;;;;;12.23;8.15;;;;;;;;;;4171375;28;20068;-78
2022/06/22 11:33:29;;;;;;;8.32;7.57;;;;;;;;;;4174020;28;20125;-77
2022/06/22 11:35:56;;;;;;;9.48;8.48;;;;;;;;;;4176907;28;21025;-77
2022/06/22 11:38:01;;;;;;;8.70;7.75;;;;;;;;;;4179399;28;20058;-77
2022/06/22 11:40:03;;;;;;;8.68;7.55;;;;;;;;;;4179718;28;20188;-78
2022/06/22 11:42:29;;;;;;;7.13;6.28;;;;;;;;;;4180177;28;20796;-78
2022/06/22 11:44:42;;;;;;;7.95;6.45;;;;;;;;;;4179913;28;20138;-76
2022/06/22 11:46:52;;;;;;;7.97;7.15;;;;;;;;;;4177093;28;20091;-78
2022/06/22 11:49:14;;;;;;;7.63;6.97;;;;;;;;;;4181581;28;20696;-77
2022/06/22 11:51:33;;;;;;;9.57;7.03;;;;;;;;;;4177023;28;20421;-78
2022/06/22 11:53:51;;;;;;;9.18;8.38;;;;;;;;;;4182490;28;20062;-77
2022/06/22 11:55:55;;;;;;;8.68;6.95;;;;;;;;;;4186422;28;20076;-78
2022/06/22 11:58:07;;;;;;;10.85;7.68;;;;;;;;;;4179847;28;20084;-78
2022/06/22 12:00:28;;;;;;;7.05;6.30;;;;;;;;;;4180265;28;20895;-77
2022/06/22 12:02:30;;;;;;;;;;;;;;;;;;4170359;28;20173;-78
2022/06/22 12:04:39;;;;;;;7.15;6.38;;;;;;;;;;4172786;28;41848;-79
2022/06/22 12:06:41;;;;;;;8.63;6.78;;;;;;;;;;4179795;28;20061;-78
2022/06/22 12:08:56;;;;;;;6.40;5.85;;;;;;;;;;4174673;28;20792;-79
2022/06/22 12:11:23;;;;;;;9.23;5.85;;;;;;;;;;4179914;28;20062;-78
2022/06/22 12:16:17;;;;;;;7.57;4.63;;;;;;;;;;4182335;28;20053;-79
2022/06/22 12:18:39;;;;;;;6.07;4.70;;;;;;;;;;4181985;28;20057;-79
2022/06/22 12:21:02;;;;;;;6.28;3.78;;;;;;;;;;4185747;28;20899;-80
2022/06/22 12:23:07;;;;;;;6.38;4.40;;;;;;;;;;4178722;28;20046;-79
2022/06/22 12:25:09;;;;;;;7.63;4.40;;;;;;;;;;4179868;28;20053;-80
2022/06/22 12:27:11;;;;;;;8.23;3.88;;;;;;;;;;4182657;28;20700;-80
2022/06/22 12:29:38;;;;;;;9.90;4.50;;;;;;;;;;4178692;28;20708;-79
2022/06/22 12:31:49;;;;;;;8.07;3.85;;;;;;;;;;4183272;28;20121;-78
2022/06/22 12:34:31;;;;;;;10.47;4.07;;;;;;;;;;4182973;28;22041;-78
2022/06/22 12:36:37;;;;;;;7.70;4.70;;;;;;;;;;4182668;28;20062;-78
2022/06/22 12:38:44;;;;;;;7.10;3.75;;;;;;;;;;4197454;28;20108;-78
2022/06/22 12:41:45;;;;;;;13.55;3.80;;;;;;;;;;4183878;28;20795;-78
2022/06/22 12:44:10;;;;;;;11.25;3.13;;;;;;;;;;4148940;28;20161;-80
2022/06/22 12:46:29;;;;;;;19.05;3.58;;;;;;;;;;4131046;28;20957;-79
2022/06/22 12:48:52;;;;;;;9.15;3.42;;;;;;;;;;4157673;28;20065;-79
2022/06/22 12:50:54;;;;;;;8.45;3.28;;;;;;;;;;4178410;28;20055;-79
2022/06/22 12:53:03;;;;;;;9.20;3.35;;;;;;;;;;4183454;28;20057;-79
2022/06/22 12:55:13;;;;;;;8.15;3.45;;;;;;;;;;4177807;28;20069;-78
2022/06/22 12:57:18;;;;;;;7.90;3.33;;;;;;;;;;4177742;28;20907;-79
2022/06/22 12:59:27;;;;;;;8.98;3.17;;;;;;;;;;4179285;28;20087;-78
2022/06/22 13:01:29;;;;;;;8.00;4.03;;;;;;;;;;4177883;28;20156;-77
2022/06/22 13:03:40;;;;;;;13.50;3.83;;;;;;;;;;4179497;28;20105;-78
2022/06/22 13:05:42;;;;;;;6.07;3.15;;;;;;;;;;4182838;28;20068;-79
2022/06/22 13:07:47;;;;;;;10.77;3.42;;;;;;;;;;4181945;28;20104;-78
2022/06/22 13:09:49;;;;;;;16.63;3.38;;;;;;;;;;4181439;28;20059;-79
2022/06/22 13:11:52;;;;;;;10.70;3.38;;;;;;;;;;4181197;28;20061;-78
2022/06/22 13:14:11;;;;;;;14.55;3.65;;;;;;;;;;4180909;28;20096;-80
2022/06/22 13:16:35;;;;;;;7.20;2.92;;;;;;;;;;4177140;28;20057;-79
2022/06/22 13:18:53;;;;;;;12.27;3.30;;;;;;;;;;4179375;28;20101;-79
2022/06/22 13:21:12;;;;;;;11.27;3.28;;;;;;;;;;4182881;28;20066;-79
2022/06/22 13:23:20;;;;;;;12.35;3.50;;;;;;;;;;4184256;28;20923;-79
2022/06/22 13:25:35;;;;;;;11.07;3.60;;;;;;;;;;4184549;28;20100;-80
2022/06/22 13:27:43;;;;;;;10.32;2.78;;;;;;;;;;4203914;22;20054;-78
2022/06/22 13:29:50;;;;;;;7.88;3.63;;;;;;;;;;4187995;28;20156;-78